sensor_id;sensor_type;location;lat;lon;timestamp;P1;durP1;ratioP1;P2;durP2;ratioP2
75837;SDS011;64480;52.040;113.502;2024-01-30T00:00:25;20.27;;;17.48;;
75837;SDS011;64480;52.040;113.502;2024-01-30T00:03:29;24.60;;;19.52;;
75837;SDS011;64480;52.040;113.502;2024-01-30T00:06:32;40.95;;;17.15;;
75837;SDS011;64480;52.040;113.502;2024-01-30T00:09:36;23.52;;;15.30;;
75837;SDS011;64480;52.040;113.502;2024-01-30T00:12:42;30.08;;;17.55;;
75837;SDS011;64480;52.040;113.502;2024-01-30T00:15:45;54.67;;;20.67;;
75837;SDS011;64480;52.040;113.502;2024-01-30T00:18:49;45.92;;;22.30;;
75837;SDS011;64480;52.040;113.502;2024-01-30T00:21:52;60.15;;;28.15;;
75837;SDS011;64480;52.040;113.502;2024-01-30T00:24:56;31.30;;;21.00;;
75837;SDS011;64480;52.040;113.502;2024-01-30T00:28:05;40.08;;;26.27;;
75837;SDS011;64480;52.040;113.502;2024-01-30T00:31:08;57.35;;;31.52;;
75837;SDS011;64480;52.040;113.502;2024-01-30T00:34:16;39.42;;;14.27;;
75837;SDS011;64480;52.040;113.502;2024-01-30T00:37:20;35.25;;;28.80;;
75837;SDS011;64480;52.040;113.502;2024-01-30T00:40:24;36.58;;;24.58;;
75837;SDS011;64480;52.040;113.502;2024-01-30T00:43:29;50.17;;;32.47;;
75837;SDS011;64480;52.040;113.502;2024-01-30T00:46:33;43.92;;;25.33;;
75837;SDS011;64480;52.040;113.502;2024-01-30T00:49:37;70.70;;;37.53;;
75837;SDS011;64480;52.040;113.502;2024-01-30T00:52:41;35.50;;;22.77;;
75837;SDS011;64480;52.040;113.502;2024-01-30T00:55:48;41.40;;;23.25;;
75837;SDS011;64480;52.040;113.502;2024-01-30T00:58:51;67.60;;;24.55;;
75837;SDS011;64480;52.040;113.502;2024-01-30T01:01:56;103.18;;;39.33;;
75837;SDS011;64480;52.040;113.502;2024-01-30T01:05:02;71.45;;;35.15;;
75837;SDS011;64480;52.040;113.502;2024-01-30T01:08:08;17.50;;;15.93;;
75837;SDS011;64480;52.040;113.502;2024-01-30T01:11:11;28.08;;;23.08;;
75837;SDS011;64480;52.040;113.502;2024-01-30T01:14:16;35.83;;;26.27;;
75837;SDS011;64480;52.040;113.502;2024-01-30T01:17:19;23.58;;;21.27;;
75837;SDS011;64480;52.040;113.502;2024-01-30T01:23:25;72.20;;;12.07;;
75837;SDS011;64480;52.040;113.502;2024-01-30T01:26:29;33.35;;;19.25;;
75837;SDS011;64480;52.040;113.502;2024-01-30T01:29:32;50.88;;;31.05;;
75837;SDS011;64480;52.040;113.502;2024-01-30T01:32:37;50.78;;;26.13;;
75837;SDS011;64480;52.040;113.502;2024-01-30T01:35:41;66.68;;;32.92;;
75837;SDS011;64480;52.040;113.502;2024-01-30T01:38:47;47.47;;;19.83;;
75837;SDS011;64480;52.040;113.502;2024-01-30T01:41:51;31.83;;;22.33;;
75837;SDS011;64480;52.040;113.502;2024-01-30T01:44:54;43.80;;;26.08;;
75837;SDS011;64480;52.040;113.502;2024-01-30T01:47:58;39.33;;;17.83;;
75837;SDS011;64480;52.040;113.502;2024-01-30T01:51:02;14.18;;;12.68;;
75837;SDS011;64480;52.040;113.502;2024-01-30T01:54:09;7.65;;;4.75;;
75837;SDS011;64480;52.040;113.502;2024-01-30T01:57:13;24.17;;;11.25;;
75837;SDS011;64480;52.040;113.502;2024-01-30T02:00:17;19.05;;;14.85;;
75837;SDS011;64480;52.040;113.502;2024-01-30T02:03:23;43.13;;;25.55;;
75837;SDS011;64480;52.040;113.502;2024-01-30T02:06:28;16.65;;;9.80;;
75837;SDS011;64480;52.040;113.502;2024-01-30T02:09:32;29.33;;;13.32;;
75837;SDS011;64480;52.040;113.502;2024-01-30T02:12:38;12.48;;;9.65;;
75837;SDS011;64480;52.040;113.502;2024-01-30T02:15:43;18.92;;;15.48;;
75837;SDS011;64480;52.040;113.502;2024-01-30T02:18:46;26.10;;;15.90;;
75837;SDS011;64480;52.040;113.502;2024-01-30T02:21:51;18.60;;;14.48;;
75837;SDS011;64480;52.040;113.502;2024-01-30T02:24:57;20.48;;;14.55;;
75837;SDS011;64480;52.040;113.502;2024-01-30T02:28:01;14.25;;;7.78;;
75837;SDS011;64480;52.040;113.502;2024-01-30T02:31:08;18.83;;;11.00;;
75837;SDS011;64480;52.040;113.502;2024-01-30T02:34:12;32.05;;;14.82;;
75837;SDS011;64480;52.040;113.502;2024-01-30T02:37:16;16.15;;;14.52;;
75837;SDS011;64480;52.040;113.502;2024-01-30T02:40:20;39.10;;;17.85;;
75837;SDS011;64480;52.040;113.502;2024-01-30T02:43:23;15.15;;;10.05;;
75837;SDS011;64480;52.040;113.502;2024-01-30T02:49:31;24.33;;;15.68;;
75837;SDS011;64480;52.040;113.502;2024-01-30T02:52:36;16.00;;;8.48;;
75837;SDS011;64480;52.040;113.502;2024-01-30T02:55:40;20.35;;;15.15;;
75837;SDS011;64480;52.040;113.502;2024-01-30T02:58:43;13.88;;;8.07;;
75837;SDS011;64480;52.040;113.502;2024-01-30T03:01:47;24.50;;;8.10;;
75837;SDS011;64480;52.040;113.502;2024-01-30T03:07:55;17.52;;;16.17;;
75837;SDS011;64480;52.040;113.502;2024-01-30T03:10:59;11.73;;;7.70;;
75837;SDS011;64480;52.040;113.502;2024-01-30T03:14:03;19.65;;;9.80;;
75837;SDS011;64480;52.040;113.502;2024-01-30T03:17:13;13.52;;;9.63;;
75837;SDS011;64480;52.040;113.502;2024-01-30T03:20:17;26.65;;;18.08;;
75837;SDS011;64480;52.040;113.502;2024-01-30T03:23:21;9.63;;;7.20;;
75837;SDS011;64480;52.040;113.502;2024-01-30T03:26:24;1.45;;;1.40;;
75837;SDS011;64480;52.040;113.502;2024-01-30T03:29:27;2.30;;;2.13;;
75837;SDS011;64480;52.040;113.502;2024-01-30T03:32:31;16.17;;;14.77;;
75837;SDS011;64480;52.040;113.502;2024-01-30T03:35:35;5.35;;;4.03;;
75837;SDS011;64480;52.040;113.502;2024-01-30T03:38:39;2.03;;;1.80;;
75837;SDS011;64480;52.040;113.502;2024-01-30T03:41:42;3.13;;;2.83;;
75837;SDS011;64480;52.040;113.502;2024-01-30T03:44:47;15.50;;;9.23;;
75837;SDS011;64480;52.040;113.502;2024-01-30T03:47:51;7.18;;;4.03;;
75837;SDS011;64480;52.040;113.502;2024-01-30T03:50:54;32.67;;;7.13;;
75837;SDS011;64480;52.040;113.502;2024-01-30T03:53:58;6.35;;;3.67;;
75837;SDS011;64480;52.040;113.502;2024-01-30T03:57:01;28.85;;;12.13;;
75837;SDS011;64480;52.040;113.502;2024-01-30T04:00:07;2.58;;;2.40;;
75837;SDS011;64480;52.040;113.502;2024-01-30T04:03:15;11.48;;;6.40;;
75837;SDS011;64480;52.040;113.502;2024-01-30T04:06:19;2.67;;;2.45;;
75837;SDS011;64480;52.040;113.502;2024-01-30T04:09:22;7.30;;;3.97;;
75837;SDS011;64480;52.040;113.502;2024-01-30T04:12:25;3.75;;;3.55;;
75837;SDS011;64480;52.040;113.502;2024-01-30T04:15:29;5.88;;;1.42;;
75837;SDS011;64480;52.040;113.502;2024-01-30T04:18:32;2.08;;;1.95;;
75837;SDS011;64480;52.040;113.502;2024-01-30T04:21:37;7.75;;;1.88;;
75837;SDS011;64480;52.040;113.502;2024-01-30T04:24:40;4.28;;;3.88;;
75837;SDS011;64480;52.040;113.502;2024-01-30T04:27:44;5.78;;;5.30;;
75837;SDS011;64480;52.040;113.502;2024-01-30T04:30:47;16.08;;;8.13;;
75837;SDS011;64480;52.040;113.502;2024-01-30T04:33:51;9.40;;;5.32;;
75837;SDS011;64480;52.040;113.502;2024-01-30T04:39:58;2.67;;;2.50;;
75837;SDS011;64480;52.040;113.502;2024-01-30T04:46:07;12.35;;;5.88;;
75837;SDS011;64480;52.040;113.502;2024-01-30T04:49:10;2.30;;;1.67;;
75837;SDS011;64480;52.040;113.502;2024-01-30T04:52:14;7.35;;;5.50;;
75837;SDS011;64480;52.040;113.502;2024-01-30T04:55:19;2.63;;;1.85;;
75837;SDS011;64480;52.040;113.502;2024-01-30T04:58:25;11.98;;;5.75;;
75837;SDS011;64480;52.040;113.502;2024-01-30T05:01:28;4.13;;;2.80;;
75837;SDS011;64480;52.040;113.502;2024-01-30T05:04:31;9.43;;;6.60;;
75837;SDS011;64480;52.040;113.502;2024-01-30T05:07:35;4.53;;;3.97;;
75837;SDS011;64480;52.040;113.502;2024-01-30T05:10:40;11.90;;;4.82;;
75837;SDS011;64480;52.040;113.502;2024-01-30T05:13:44;12.48;;;10.45;;
75837;SDS011;64480;52.040;113.502;2024-01-30T05:17:00;6.05;;;4.55;;
75837;SDS011;64480;52.040;113.502;2024-01-30T05:20:13;17.63;;;5.50;;
